Time;durP1;ratioP1;P1;durP2;ratioP2;P2;SDS_P1;SDS_P2;PMS_P1;PMS_P2;Temp;Humidity;BMP_temperature;BMP_pressure;BME280_temperature;BME280_humidity;BME280_pressure;Samples;Min_cycle;Max_cycle;Signal;HPM_P1;HPM_P2
2023/01/07 00:00:53;;;;;;;13.22;2.92;;;;;;;4.07;97.97;99539.83;1783121;80;21595;-85
2023/01/07 00:03:25;;;;;;;14.50;3.83;;;;;;;4.07;98.20;99544.16;1782930;80;21771;-85
2023/01/07 00:06:02;;;;;;;9.00;3.47;;;;;;;4.06;98.09;99539.85;1783008;80;21022;-85
2023/01/07 00:08:39;;;;;;;11.65;3.22;;;;;;;4.05;98.06;99548.05;1782974;80;21002;-86
2023/01/07 00:11:19;;;;;;;17.70;3.12;;;;;;;4.05;98.10;99546.77;1783062;80;21034;-86
2023/01/07 00:13:52;;;;;;;9.53;2.50;;;;;;;4.06;98.09;99548.45;1782850;80;20930;-86
2023/01/07 00:16:28;;;;;;;10.40;2.98;;;;;;;4.03;97.98;99557.56;1782263;79;21057;-86
2023/01/07 00:19:01;;;;;;;9.10;2.70;;;;;;;4.04;98.14;99559.28;1781657;79;21025;-86
2023/01/07 00:21:35;;;;;;;10.03;2.77;;;;;;;4.05;98.17;99557.09;1781978;80;20989;-86
2023/01/07 00:24:11;;;;;;;8.00;2.33;;;;;;;4.06;98.20;99561.37;1782888;80;21747;-86
2023/01/07 00:26:47;;;;;;;9.47;2.77;;;;;;;4.08;98.27;99558.77;1783195;80;21038;-87
2023/01/07 00:29:20;;;;;;;8.45;3.17;;;;;;;4.10;98.31;99566.89;1754378;80;21622;-86
2023/01/07 00:31:51;;;;;;;9.63;2.60;;;;;;;4.11;98.28;99564.70;1782994;80;21033;-86
2023/01/07 00:34:24;;;;;;;11.38;2.72;;;;;;;4.10;98.16;99565.59;1782979;80;20993;-86
2023/01/07 00:37:48;;;;;;;12.58;3.40;;;;;;;4.11;98.27;99562.11;1783039;80;21014;-86
2023/01/07 00:39:28;;;;;;;9.65;2.52;;;;;;;4.10;98.20;99564.30;1776064;80;20980;-86
2023/01/07 00:44:50;;;;;;;8.40;2.12;;;;;;;4.07;98.06;99555.34;1783038;80;20931;-86
2023/01/07 00:47:21;;;;;;;12.35;2.58;;;;;;;4.07;98.29;99562.24;1783485;80;21021;-86
2023/01/07 00:49:52;;;;;;;11.30;2.98;;;;;;;4.11;98.37;99569.87;1783062;80;21529;-86
2023/01/07 00:52:25;;;;;;;14.45;3.00;;;;;;;4.12;98.36;99565.58;1783055;80;21391;-85
2023/01/07 00:55:00;;;;;;;13.38;2.70;;;;;;;4.10;98.32;99573.34;1783064;80;21712;-86
2023/01/07 00:57:33;;;;;;;13.08;3.55;;;;;;;4.10;98.38;99569.47;1783223;80;20974;-86
2023/01/07 01:00:05;;;;;;;16.23;3.42;;;;;;;4.13;98.44;99577.59;1782844;80;21454;-86
2023/01/07 01:02:39;;;;;;;7.62;2.30;;;;;;;4.14;98.40;99567.20;1783061;80;21038;-86
2023/01/07 01:05:13;;;;;;;14.20;3.67;;;;;;;4.15;98.44;99576.67;1782991;80;21006;-86
2023/01/07 01:07:46;;;;;;;11.78;2.70;;;;;;;4.17;98.54;99576.21;1782854;80;20989;-86
2023/01/07 01:10:20;;;;;;;11.95;3.87;;;;;;;4.20;98.50;99580.02;1783085;80;21017;-87
2023/01/07 01:12:51;;;;;;;11.40;2.98;;;;;;;4.17;98.36;99574.91;1781312;80;21712;-86
2023/01/07 01:15:26;;;;;;;20.43;4.00;;;;;;;4.16;98.43;99578.37;1782882;80;20994;-86
2023/01/07 01:18:00;;;;;;;13.03;3.60;;;;;;;4.16;98.43;99578.37;1782880;79;21068;-86
2023/01/07 01:20:34;;;;;;;17.73;3.42;;;;;;;4.17;98.48;99580.09;1782884;80;20962;-86
2023/01/07 01:23:07;;;;;;;13.08;3.60;;;;;;;4.15;98.39;99580.55;1782938;80;21073;-86
2023/01/07 01:25:38;;;;;;;14.15;3.62;;;;;;;4.13;98.39;99584.91;1782972;80;20963;-86
2023/01/07 01:28:15;;;;;;;13.83;3.40;;;;;;;4.15;98.55;99583.14;1783040;79;21474;-86
2023/01/07 01:30:45;;;;;;;11.63;2.65;;;;;;;4.16;98.47;99586.12;1760988;80;21043;-86
2023/01/07 01:33:20;;;;;;;15.68;3.65;;;;;;;4.14;98.43;99580.13;1760654;80;20971;-87
2023/01/07 01:35:53;;;;;;;9.63;2.90;;;;;;;4.16;98.50;99583.98;1760908;81;21038;-87
2023/01/07 01:38:25;;;;;;;11.68;2.98;;;;;;;4.15;98.48;99581.84;1714489;82;20990;-86
2023/01/07 01:40:56;;;;;;;11.75;2.60;;;;;;;4.14;98.32;99594.34;1734488;82;21086;-86
2023/01/07 01:43:40;;;;;;;10.90;2.80;;;;;;;4.13;98.34;99599.11;1714588;83;21529;-86
2023/01/07 01:46:36;;;;;;;14.07;2.80;;;;;;;4.15;98.45;99598.64;1733584;82;21060;-86
2023/01/07 01:49:20;;;;;;;12.33;3.12;;;;;;;4.14;98.50;99594.78;1742140;81;21521;-86
2023/01/07 01:52:12;;;;;;;9.90;3.00;;;;;;;4.14;98.50;99598.22;1732914;82;20990;-86
2023/01/07 01:54:52;;;;;;;8.53;2.40;;;;;;;4.15;98.59;99602.52;1700570;84;21061;-86
2023/01/07 01:57:25;;;;;;;9.70;2.05;;;;;;;4.14;98.39;99598.22;1714098;84;20966;-86
2023/01/07 01:59:59;;;;;;;12.00;2.72;;;;;;;4.11;98.34;99600.88;1713869;83;21638;-85
2023/01/07 02:02:33;;;;;;;12.23;2.40;;;;;;;4.09;98.33;99601.38;1732769;82;21835;-86
2023/01/07 02:05:08;;;;;;;15.15;3.45;;;;;;;4.11;98.44;99612.50;1713913;84;21108;-86
2023/01/07 02:07:37;;;;;;;10.38;2.95;;;;;;;4.10;98.36;99612.11;1713912;83;21054;-89
2023/01/07 02:10:17;;;;;;;17.02;3.17;;;;;;;4.10;98.42;99612.11;1761057;81;20932;-86
2023/01/07 02:13:09;;;;;;;12.47;2.87;;;;;;;4.07;98.34;99610.89;1760247;81;21006;-86
2023/01/07 02:16:14;;;;;;;13.70;2.90;;;;;;;4.06;98.37;99610.45;1759579;81;21023;-85
2023/01/07 02:18:59;;;;;;;10.13;2.98;;;;;;;4.09;98.66;99622.05;1763112;80;21554;-86
2023/01/07 02:21:43;;;;;;;11.40;3.20;;;;;;;4.10;98.58;99618.56;1768204;81;21046;-85
2023/01/07 02:24:44;;;;;;;14.55;4.15;;;;;;;4.12;98.68;99620.69;1768133;81;21470;-86
2023/01/07 02:27:48;;;;;;;11.10;3.52;;;;;;;4.13;98.60;99619.78;1769002;80;21863;-86
2023/01/07 02:30:49;;;;;;;;;;;;;;;4.14;98.66;99620.19;1716426;83;21059;-86
2023/01/07 02:33:28;;;;;;;11.08;2.92;;;;;;;4.14;98.61;99613.72;1716635;83;20142;-86
2023/01/07 02:36:09;;;;;;;11.73;3.05;;;;;;;4.16;98.69;99618.42;1674808;85;21358;-85
2023/01/07 02:38:52;;;;;;;16.48;3.83;;;;;;;4.16;98.53;99613.25;1706084;84;21021;-86
2023/01/07 02:41:59;;;;;;;12.33;3.65;;;;;;;4.14;98.33;99616.30;1676407;85;21034;-86
2023/01/07 02:44:54;;;;;;;11.57;3.60;;;;;;;4.18;98.58;99610.20;1648873;86;20998;-86
2023/01/07 02:47:53;;;;;;;9.80;3.30;;;;;;;4.19;98.44;99609.30;1630751;88;21033;-86
2023/01/07 02:50:25;;;;;;;16.80;3.92;;;;;;;4.21;98.58;99612.71;1630749;88;21006;-85
2023/01/07 02:53:00;;;;;;;10.08;2.98;;;;;;;4.23;98.49;99619.99;1630710;88;21022;-89
2023/01/07 02:55:52;;;;;;;10.53;2.72;;;;;;;4.21;98.45;99625.63;1629999;88;21038;-86
2023/01/07 02:58:40;;;;;;;16.20;3.05;;;;;;;4.24;98.57;99621.68;1609549;88;21027;-85
2023/01/07 03:01:25;;;;;;;;;;;;;;;4.25;98.53;99624.66;1633305;88;21014;-85
2023/01/07 03:04:11;;;;;;;12.95;2.80;;;;;;;4.31;98.75;99628.00;1658836;86;20533;-85
2023/01/07 03:07:08;;;;;;;8.23;2.65;;;;;;;4.29;98.51;99626.76;1649338;84;21069;-85
2023/01/07 03:10:01;;;;;;;9.98;2.70;;;;;;;4.30;98.57;99625.02;1700931;84;21931;-85
2023/01/07 03:12:50;;;;;;;14.30;3.15;;;;;;;4.29;98.51;99629.34;1681887;85;21307;-85
2023/01/07 03:15:48;;;;;;;12.65;2.77;;;;;;;4.30;98.44;99631.03;1699563;84;21585;-86
2023/01/07 03:18:27;;;;;;;;;;;;;;;4.31;98.57;99637.05;1689130;85;21330;-85
2023/01/07 03:24:28;;;;;;;7.83;2.42;;;;;;;4.33;98.46;99641.74;1748215;82;21513;-87
2023/01/07 03:31:00;;;;;;;9.63;3.05;;;;;;;4.25;98.42;99640.17;1759017;80;21247;-85
2023/01/07 03:37:31;;;;;;;11.50;2.83;;;;;;;4.26;98.39;99649.64;1758642;81;21095;-86
2023/01/07 03:40:10;;;;;;;9.90;3.22;;;;;;;4.25;98.46;99644.49;1748300;82;20958;-85
2023/01/07 03:46:29;;;;;;;12.10;3.60;;;;;;;4.23;98.42;99644.55;1748583;82;21005;-85
2023/01/07 03:53:00;;;;;;;8.53;2.85;;;;;;;4.19;98.32;99648.06;1748439;82;20958;-85
2023/01/07 03:59:32;;;;;;;9.58;3.25;;;;;;;4.17;98.42;99647.27;1748348;82;20981;-84
2023/01/07 04:05:16;;;;;;;8.88;3.12;;;;;;;4.20;98.49;99651.08;1748277;82;21032;-85
2023/01/07 04:11:46;;;;;;;10.60;3.25;;;;;;;4.22;98.54;99648.00;1748378;82;20930;-85
2023/01/07 04:18:08;;;;;;;9.43;3.00;;;;;;;4.22;98.46;99653.16;1748492;82;21053;-85
2023/01/07 04:20:41;;;;;;;13.85;3.25;;;;;;;4.21;98.49;99654.06;1732318;82;20962;-86
2023/01/07 04:27:13;;;;;;;10.78;3.65;;;;;;;4.22;98.47;99649.28;1753863;82;20981;-85
2023/01/07 04:29:45;;;;;;;9.93;3.02;;;;;;;4.23;98.51;99656.63;1769218;81;20990;-86
2023/01/07 04:36:17;;;;;;;11.43;2.47;;;;;;;4.21;98.45;99657.94;1769460;81;21462;-86
2023/01/07 04:42:49;;;;;;;6.75;2.80;;;;;;;4.26;98.34;99661.27;1769522;81;21054;-85
2023/01/07 04:49:19;;;;;;;8.70;2.85;;;;;;;4.21;98.46;99657.94;1769674;81;21215;-85
2023/01/07 04:55:50;;;;;;;8.43;2.83;;;;;;;4.28;98.71;99646.16;1769402;81;21073;-85
2023/01/07 05:02:23;;;;;;;9.23;3.20;;;;;;;4.29;98.31;99653.89;1769512;81;20970;-85
2023/01/07 05:08:53;;;;;;;14.83;2.62;;;;;;;4.29;98.43;99656.48;1769427;81;21949;-85
2023/01/07 05:15:32;;;;;;;11.80;3.02;;;;;;;4.26;98.46;99659.98;1767847;81;21037;-85
2023/01/07 05:22:03;;;;;;;10.58;2.90;;;;;;;4.19;98.28;99659.70;1774749;80;21151;-85
2023/01/07 05:28:35;;;;;;;11.43;2.80;;;;;;;4.12;98.30;99673.66;1773466;81;21019;-85
2023/01/07 05:34:56;;;;;;;7.97;3.17;;;;;;;4.09;98.30;99677.59;1772945;81;21206;-85
2023/01/07 05:41:28;;;;;;;6.92;2.33;;;;;;;4.02;98.15;99681.19;1773669;81;21231;-84
2023/01/07 05:44:01;;;;;;;11.73;3.00;;;;;;;3.98;98.19;99680.41;1773307;80;21738;-84
2023/01/07 05:46:34;;;;;;;9.33;2.77;;;;;;;4.01;98.38;99687.24;1773011;81;21750;-84
2023/01/07 05:49:09;;;;;;;7.22;2.55;;;;;;;4.04;98.39;99683.30;1772842;81;21531;-84
2023/01/07 05:51:41;;;;;;;6.70;3.00;;;;;;;4.09;98.53;99681.47;1773070;80;21027;-84
2023/01/07 05:54:12;;;;;;;12.13;2.77;;;;;;;4.12;98.45;99687.02;1773115;81;20972;-85
2023/01/07 05:56:50;;;;;;;9.60;3.17;;;;;;;4.13;98.33;99692.14;1773313;81;21894;-84
2023/01/07 05:59:18;;;;;;;14.03;3.47;;;;;;;4.08;97.97;99692.67;1770223;81;21008;-84
2023/01/07 06:01:53;;;;;;;7.83;3.17;;;;;;;4.01;97.86;99700.16;1773298;80;21496;-85
2023/01/07 06:04:25;;;;;;;13.03;2.85;;;;;;;3.97;98.04;99693.34;1773358;81;21543;-84
2023/01/07 06:06:56;;;;;;;8.90;2.70;;;;;;;4.02;98.27;99694.10;1773326;81;21020;-85
2023/01/07 06:09:31;;;;;;;10.05;3.02;;;;;;;4.05;98.19;99692.74;1773177;80;21742;-85
2023/01/07 06:12:04;;;;;;;7.47;2.60;;;;;;;4.00;97.79;99690.69;1773156;80;21849;-86
2023/01/07 06:14:34;;;;;;;8.93;3.87;;;;;;;3.90;97.43;99691.78;1772105;80;21063;-84
2023/01/07 06:17:05;;;;;;;11.78;3.45;;;;;;;3.80;97.48;99691.95;1771846;80;21928;-84
2023/01/07 06:19:38;;;;;;;10.60;3.25;;;;;;;3.75;97.50;99696.37;1772519;80;20968;-84
2023/01/07 06:22:15;;;;;;;6.62;2.62;;;;;;;3.73;97.73;99699.88;1770008;80;21108;-85
2023/01/07 06:24:46;;;;;;;10.08;3.37;;;;;;;3.72;97.76;99699.00;1770667;81;21039;-84
2023/01/07 06:27:18;;;;;;;7.60;2.58;;;;;;;3.72;97.81;99703.31;1768555;81;21037;-84
2023/01/07 06:29:49;;;;;;;9.03;2.60;;;;;;;3.73;97.87;99705.88;1768329;80;21806;-85
2023/01/07 06:32:22;;;;;;;7.70;2.67;;;;;;;3.76;97.86;99702.39;1768287;81;20992;-85
2023/01/07 06:34:55;;;;;;;8.40;2.35;;;;;;;3.75;97.85;99709.30;1768489;81;20999;-85
2023/01/07 06:37:29;;;;;;;10.10;3.37;;;;;;;3.78;97.83;99710.94;1768228;81;21047;-85
2023/01/07 06:40:01;;;;;;;8.18;2.85;;;;;;;3.71;97.48;99711.51;1768199;80;21796;-85
2023/01/07 06:42:30;;;;;;;11.90;3.55;;;;;;;3.63;97.22;99713.38;1768467;81;20977;-85
2023/01/07 06:45:00;;;;;;;11.63;4.70;;;;;;;3.56;97.25;99723.44;1768149;81;21033;-85
2023/01/07 06:47:33;;;;;;;10.70;4.42;;;;;;;3.60;97.61;99718.61;1768138;81;20981;-85
2023/01/07 06:50:05;;;;;;;11.88;3.95;;;;;;;3.62;97.66;99728.48;1768423;81;21491;-85
2023/01/07 06:52:38;;;;;;;6.30;2.98;;;;;;;3.63;97.59;99732.75;1768338;80;20984;-85
2023/01/07 06:55:11;;;;;;;7.40;2.90;;;;;;;3.59;97.43;99727.25;1766617;80;21511;-85
2023/01/07 06:57:42;;;;;;;12.68;3.40;;;;;;;3.52;97.04;99733.39;1768449;80;21819;-85
2023/01/07 07:00:15;;;;;;;9.53;4.10;;;;;;;3.38;96.70;99734.08;1768546;81;21048;-85
2023/01/07 07:02:48;;;;;;;9.33;3.95;;;;;;;3.19;96.37;99735.67;1768142;81;21587;-88
2023/01/07 07:05:19;;;;;;;10.15;3.35;;;;;;;3.02;96.25;99732.09;1770568;81;21071;-84
2023/01/07 07:07:54;;;;;;;11.80;4.00;;;;;;;2.86;96.23;99737.95;1764660;81;21004;-87
2023/01/07 07:10:31;;;;;;;11.38;3.45;;;;;;;2.75;96.37;99739.84;1768261;81;20981;-84
2023/01/07 07:13:03;;;;;;;9.43;3.52;;;;;;;2.67;96.66;99737.81;1745693;81;21742;-85
2023/01/07 07:15:36;;;;;;;7.75;3.33;;;;;;;2.67;97.01;99750.70;1768406;80;21037;-84
2023/01/07 07:18:07;;;;;;;10.05;3.67;;;;;;;2.69;97.21;99751.55;1768115;81;21084;-83
2023/01/07 07:20:42;;;;;;;9.83;3.92;;;;;;;2.70;97.24;99754.52;1767643;80;20957;-88
2023/01/07 07:23:26;;;;;;;;;;;;;;;;;;;;;
2023/01/07 07:25:54;;;;;;;14.23;4.70;;;;;;;2.85;97.53;99746.98;1757750;80;21515;-88
2023/01/07 07:32:31;;;;;;;;;;;;;;;;;;;;;
2023/01/07 07:38:50;;;;;;;16.95;7.87;;;;;;;2.75;96.87;99764.34;1736808;82;21546;-86
2023/01/07 07:41:29;;;;;;;18.17;7.95;;;;;;;2.83;97.37;99761.21;1657953;84;21052;-83
2023/01/07 07:54:07;;;;;;;13.58;5.25;;;;;;;2.88;97.36;99768.41;1474521;92;21970;-87
2023/01/07 08:00:25;;;;;;;9.38;4.25;;;;;;;2.85;97.11;99772.33;1398647;101;21888;-86
2023/01/07 08:09:53;;;;;;;10.55;4.35;;;;;;;2.86;97.01;99786.95;1395258;102;21135;-85
2023/01/07 08:12:27;;;;;;;11.70;4.30;;;;;;;2.85;96.94;99785.66;1396823;102;21663;-83
2023/01/07 08:15:20;;;;;;;;;;;;;;;;;;;;;
2023/01/07 08:26:49;;;;;;;16.02;7.33;;;;;;;2.83;96.89;99772.81;1340797;105;21167;-84
2023/01/07 08:29:44;;;;;;;18.70;9.48;;;;;;;2.78;96.98;99774.60;1339456;107;21234;-84
2023/01/07 08:32:21;;;;;;;18.82;9.83;;;;;;;2.78;97.01;99779.76;1349352;105;21174;-85
2023/01/07 08:35:11;;;;;;;;;;;;;;;;;;;;;
2023/01/07 08:55:12;;;;;;;15.10;9.30;;;;;;;3.08;98.19;99756.94;1298200;108;20222;-82
2023/01/07 09:14:41;;;;;;;13.62;5.15;;;;;;;4.16;98.55;99799.77;1358498;105;21149;-85
2023/01/07 09:17:13;;;;;;;13.08;5.12;;;;;;;4.48;99.09;99817.19;1359566;104;21177;-87
2023/01/07 09:27:29;;;;;;;18.23;6.28;;;;;;;4.80;98.16;99827.31;1375096;101;21218;-84
2023/01/07 09:30:06;;;;;;;11.03;6.65;;;;;;;4.90;98.34;99815.43;1361392;102;21220;-87
2023/01/07 09:32:36;;;;;;;20.97;10.10;;;;;;;4.91;98.03;99811.10;1376272;104;21143;-86
2023/01/07 09:35:15;;;;;;;20.27;7.97;;;;;;;5.03;98.71;99808.22;1375838;103;21075;-87
2023/01/07 09:37:45;;;;;;;18.90;7.72;;;;;;;5.03;98.13;99808.22;1393806;100;21160;-88
2023/01/07 09:40:29;;;;;;;12.35;7.12;;;;;;;5.04;98.15;99811.66;1410189;102;21125;-88
2023/01/07 09:43:23;;;;;;;12.70;7.10;;;;;;;5.13;98.29;99809.72;1418723;100;21081;-87
2023/01/07 09:46:24;;;;;;;13.28;7.35;;;;;;;5.20;98.34;99810.86;1410019;101;21102;-86
2023/01/07 09:49:18;;;;;;;;;;;;;;;;;;;;;
2023/01/07 09:52:01;;;;;;;15.85;7.28;;;;;;;5.33;98.35;99805.80;1695495;84;21113;-85
2023/01/07 09:54:33;;;;;;;11.68;6.67;;;;;;;5.35;98.20;99806.62;1698700;84;21011;-85
2023/01/07 09:57:09;;;;;;;17.40;7.28;;;;;;;5.41;98.28;99803.03;1701171;84;21900;-86
2023/01/07 09:59:45;;;;;;;15.20;7.60;;;;;;;5.42;98.02;99810.75;1701291;83;21038;-85
2023/01/07 10:02:21;;;;;;;15.13;6.20;;;;;;;5.50;98.22;99803.64;1700923;84;21926;-85
2023/01/07 10:05:14;;;;;;;12.85;6.33;;;;;;;5.53;98.05;99806.14;1701889;83;21908;-86
2023/01/07 10:12:27;;;;;;;15.10;6.92;;;;;;;5.68;98.54;99807.94;1701146;83;21030;-87
2023/01/07 10:19:25;;;;;;;16.40;8.90;;;;;;;5.74;98.38;99798.70;1700365;83;21031;-85
2023/01/07 10:26:05;;;;;;;46.13;37.73;;;;;;;5.60;97.22;99790.88;1699999;84;21907;-86
2023/01/07 10:32:45;;;;;;;22.45;15.20;;;;;;;5.68;97.69;99772.96;1687081;83;22021;-84
2023/01/07 10:39:28;;;;;;;17.23;8.40;;;;;;;5.81;98.33;99761.39;1659718;85;21092;-87
2023/01/07 10:46:35;;;;;;;9.95;5.95;;;;;;;5.74;97.79;99754.66;1698654;83;21985;-85
2023/01/07 10:57:21;;;;;;;16.77;9.85;;;;;;;5.98;98.43;99763.09;1698486;84;21104;-85
2023/01/07 11:03:58;;;;;;;14.73;8.70;;;;;;;6.24;97.85;99760.21;1698754;84;21065;-85
2023/01/07 11:10:32;;;;;;;13.53;8.18;;;;;;;6.36;97.53;99743.02;1767202;81;21069;-85
2023/01/07 11:17:25;;;;;;;12.60;8.33;;;;;;;6.63;97.88;99744.36;1768676;81;21077;-85
2023/01/07 11:24:06;;;;;;;11.00;7.15;;;;;;;6.71;97.76;99726.81;1679588;85;21010;-91
2023/01/07 11:40:18;;;;;;;9.83;6.92;;;;;;;6.91;97.07;99715.79;1497853;94;21157;-86
2023/01/07 11:55:12;;;;;;;;;;;;;;;;;;;;;
2023/01/07 11:57:56;;;;;;;;;;;;;;;;;;;;;
2023/01/07 12:04:57;;;;;;;18.05;11.88;;;;;;;6.75;96.43;99714.16;1459408;97;21244;-87
2023/01/07 12:24:37;;;;;;;;;;;;;;;;;;;;;
2023/01/07 12:38:56;;;;;;;18.32;10.20;;;;;;;5.79;95.16;99713.94;1473684;97;21176;-91
2023/01/07 12:48:39;;;;;;;;;;;;;;;;;;;;;
2023/01/07 12:54:57;;;;;;;;;;;;;;;;;;;;;
2023/01/07 12:57:38;;;;;;;19.30;9.73;;;;;;;5.72;94.74;99709.83;1479487;97;21099;-86
2023/01/07 13:00:35;;;;;;;17.37;9.70;;;;;;;5.61;94.77;99707.08;1426893;100;21121;-86
2023/01/07 13:07:54;;;;;;;15.95;8.73;;;;;;;5.57;94.93;99708.06;1397986;99;21084;-87
2023/01/07 13:15:02;;;;;;;;;;;;;;;;;;;;;
2023/01/07 13:21:46;;;;;;;14.90;8.53;;;;;;;5.23;94.48;99695.59;1423077;97;21137;-85
2023/01/07 13:47:11;;;;;;;14.35;8.75;;;;;;;3.92;93.65;99686.13;1568213;87;21567;-84
2023/01/07 13:57:45;;;;;;;14.73;9.65;;;;;;;3.57;93.74;99701.89;1622201;88;21065;-85
2023/01/07 14:04:43;;;;;;;14.47;10.03;;;;;;;3.71;94.69;99703.77;1623717;88;21324;-84
2023/01/07 14:11:12;;;;;;;17.15;11.33;;;;;;;3.80;94.34;99710.02;1623555;88;21112;-85
2023/01/07 14:17:54;;;;;;;27.42;19.85;;;;;;;3.85;94.35;99716.85;1623572;88;21762;-85
2023/01/07 14:24:33;;;;;;;43.33;30.68;;;;;;;3.67;93.85;99721.91;1758189;81;21031;-84
2023/01/07 14:31:07;;;;;;;39.25;23.05;;;;;;;3.65;94.14;99715.50;1747129;82;21054;-84
2023/01/07 14:37:45;;;;;;;36.68;20.43;;;;;;;3.55;94.06;99708.80;1747525;82;21010;-83
2023/01/07 14:40:48;;;;;;;37.88;20.77;;;;;;;3.42;93.74;99706.91;1745123;82;21074;-83
2023/01/07 14:43:45;;;;;;;34.23;21.42;;;;;;;3.31;93.61;99710.97;1733524;81;21025;-83
2023/01/07 14:46:28;;;;;;;37.78;23.32;;;;;;;3.22;93.63;99718.87;1769550;80;21760;-83
2023/01/07 14:49:05;;;;;;;39.00;23.45;;;;;;;3.13;93.46;99721.59;1762846;80;21038;-83
2023/01/07 14:59:34;;;;;;;39.10;21.77;;;;;;;2.66;93.07;99725.78;1633087;84;21353;-84
2023/01/07 15:02:36;;;;;;;34.95;20.45;;;;;;;2.51;93.21;99723.44;1628906;88;21101;-84
2023/01/07 15:05:53;;;;;;;46.30;26.93;;;;;;;2.37;93.19;99719.33;1631274;88;21026;-83
2023/01/07 15:18:30;;;;;;;48.25;27.73;;;;;;;2.15;93.64;99714.05;1542488;93;22046;-81
2023/01/07 15:28:39;;;;;;;52.88;32.42;;;;;;;2.10;93.66;99709.38;1549158;88;21110;-86
2023/01/07 15:31:39;;;;;;;61.08;35.28;;;;;;;2.05;93.56;99706.89;1463702;98;21052;-83
2023/01/07 15:34:15;;;;;;;49.77;28.85;;;;;;;2.03;93.45;99709.06;1494373;94;22009;-84
2023/01/07 15:37:19;;;;;;;41.88;25.65;;;;;;;1.95;93.29;99703.56;1494379;96;21105;-84
2023/01/07 15:39:56;;;;;;;46.92;27.27;;;;;;;1.94;93.53;99700.58;1493633;95;21935;-84
2023/01/07 15:42:32;;;;;;;40.10;27.48;;;;;;;1.91;93.50;99702.35;1487625;94;21139;-82
2023/01/07 15:45:04;;;;;;;44.73;27.93;;;;;;;1.88;93.39;99710.97;1474770;97;21601;-82
2023/01/07 15:47:56;;;;;;;41.40;24.95;;;;;;;1.87;93.46;99707.95;1480664;94;21119;-84
2023/01/07 15:50:39;;;;;;;49.10;29.60;;;;;;;1.88;93.57;99701.11;1519536;93;21030;-84
2023/01/07 15:53:21;;;;;;;53.05;31.60;;;;;;;1.80;93.25;99701.19;1517059;94;21165;-83
2023/01/07 15:56:10;;;;;;;57.17;37.25;;;;;;;1.79;93.58;99699.06;1516839;94;21951;-86
2023/01/07 15:58:47;;;;;;;51.18;31.73;;;;;;;1.81;93.70;99702.04;1516872;94;21907;-85
2023/01/07 16:01:40;;;;;;;41.05;24.87;;;;;;;1.79;93.68;99703.33;1535069;91;21127;-85
2023/01/07 16:08:18;;;;;;;36.60;21.50;;;;;;;1.84;93.83;99700.27;1691817;85;21419;-84
2023/01/07 16:11:11;;;;;;;29.85;20.37;;;;;;;1.86;93.71;99703.69;1675871;85;21925;-82
2023/01/07 16:18:24;;;;;;;51.28;28.45;;;;;;;1.78;93.64;99696.48;1717124;83;20995;-85
2023/01/07 16:21:08;;;;;;;47.67;28.38;;;;;;;1.77;93.79;99696.08;1716643;83;21004;-87
2023/01/07 16:23:42;;;;;;;48.13;28.32;;;;;;;1.72;93.67;99697.85;1688024;85;21005;-84
2023/01/07 16:26:28;;;;;;;;;;;;;;;;;;;;;
2023/01/07 16:32:54;;;;;;;46.60;29.77;;;;;;;1.70;93.89;99693.15;1604703;89;21092;-84
2023/01/07 16:49:59;;;;;;;50.45;32.30;;;;;;;1.99;94.23;99665.33;1516436;92;21512;-84
2023/01/07 16:57:08;;;;;;;55.12;36.23;;;;;;;2.06;94.26;99666.53;1516032;94;21226;-84
2023/01/07 16:59:56;;;;;;;50.43;34.10;;;;;;;2.10;94.38;99670.75;1516218;94;21885;-82
2023/01/07 17:02:47;;;;;;;56.70;35.65;;;;;;;2.19;94.49;99673.23;1530447;92;21089;-85
2023/01/07 17:05:26;;;;;;;48.42;28.73;;;;;;;2.26;94.58;99663.23;1530795;93;21137;-84
2023/01/07 17:08:29;;;;;;;51.70;32.20;;;;;;;2.30;94.47;99666.61;1500871;95;21893;-82
2023/01/07 17:11:20;;;;;;;43.45;26.77;;;;;;;2.31;94.32;99672.19;1500872;94;21135;-87
2023/01/07 17:17:44;;;;;;;38.70;22.75;;;;;;;2.31;94.36;99660.16;1532104;93;22021;-84
2023/01/07 17:20:28;;;;;;;35.92;23.27;;;;;;;2.31;94.28;99667.88;1457415;97;21050;-82
2023/01/07 17:23:34;;;;;;;36.08;22.82;;;;;;;2.30;94.27;99667.48;1506579;91;21108;-83
2023/01/07 17:26:17;;;;;;;35.23;22.55;;;;;;;2.27;94.12;99650.78;1537690;92;22124;-83
2023/01/07 17:28:56;;;;;;;31.00;20.70;;;;;;;2.22;94.35;99653.41;1537086;92;21137;-83
2023/01/07 17:31:30;;;;;;;35.83;21.57;;;;;;;2.25;94.43;99651.23;1571345;90;21113;-84
2023/01/07 17:34:21;;;;;;;37.10;23.12;;;;;;;2.26;94.46;99659.36;1578392;91;21073;-87
2023/01/07 17:37:05;;;;;;;;;;;;;;;;;;;;;
2023/01/07 17:39:44;;;;;;;;;;;;;;;;;;;;;
2023/01/07 17:45:15;;;;;;;42.57;27.53;;;;;;;2.16;94.61;99651.37;1579862;91;21068;-85
2023/01/07 17:47:55;;;;;;;;;;;;;;;;;;;;;
2023/01/07 17:50:40;;;;;;;48.42;30.50;;;;;;;2.36;94.96;99642.91;1600772;89;21942;-86
2023/01/07 17:53:41;;;;;;;43.98;28.57;;;;;;;2.45;95.04;99653.06;1637822;87;20989;-87
2023/01/07 17:56:27;;;;;;;53.87;30.80;;;;;;;2.58;95.18;99655.47;1632870;87;21128;-91
2023/01/07 17:59:17;;;;;;;41.68;24.77;;;;;;;2.63;95.02;99653.64;1736486;82;21077;-85
2023/01/07 18:01:57;;;;;;;38.33;21.95;;;;;;;2.73;95.12;99654.37;1709324;82;21084;-86
2023/01/07 18:04:32;;;;;;;61.08;43.10;;;;;;;2.74;94.93;99644.01;1703638;84;22064;-84
2023/01/07 18:07:15;;;;;;;108.05;68.92;;;;;;;2.82;95.17;99646.02;1741327;82;20999;-84
2023/01/07 18:09:51;;;;;;;56.63;41.08;;;;;;;2.84;94.92;99640.41;1737186;81;21011;-84
2023/01/07 18:12:29;;;;;;;34.53;22.58;;;;;;;2.89;95.16;99650.22;1739928;82;21050;-83
2023/01/07 18:15:04;;;;;;;30.08;17.57;;;;;;;2.98;95.31;99652.23;1742160;81;21062;-86
2023/01/07 18:17:39;;;;;;;25.20;17.80;;;;;;;3.06;95.21;99658.10;1751489;80;21018;-84
2023/01/07 18:20:15;;;;;;;22.05;16.00;;;;;;;3.12;95.30;99654.12;1717896;82;21025;-85
2023/01/07 18:23:06;;;;;;;23.50;16.10;;;;;;;3.22;95.54;99650.50;1692273;83;21002;-87
2023/01/07 18:25:44;;;;;;;;;;;;;;;;;;;;;
2023/01/07 18:35:24;;;;;;;22.90;14.90;;;;;;;3.41;95.53;99635.94;1671237;85;21536;-88
2023/01/07 18:37:56;;;;;;;24.92;16.67;;;;;;;3.47;95.48;99641.83;1683191;85;21010;-88
2023/01/07 18:40:34;;;;;;;23.83;16.42;;;;;;;3.51;95.48;99634.89;1681868;84;21478;-85
2023/01/07 18:43:04;;;;;;;25.25;16.20;;;;;;;3.51;95.38;99634.89;1682862;85;21771;-86
2023/01/07 18:45:37;;;;;;;30.48;17.23;;;;;;;3.53;95.50;99633.14;1683313;85;20990;-86
2023/01/07 18:48:22;;;;;;;;;;;;;;;;;;;;;
2023/01/07 18:50:48;;;;;;;25.97;16.07;;;;;;;3.60;95.68;99637.28;1672562;85;21951;-89
2023/01/07 18:53:21;;;;;;;26.33;15.75;;;;;;;3.67;95.78;99636.29;1703228;84;21065;-83
2023/01/07 18:56:07;;;;;;;20.92;15.23;;;;;;;3.67;95.66;99628.55;1703066;84;21036;-85
2023/01/07 18:58:37;;;;;;;21.82;15.70;;;;;;;3.66;95.50;99629.41;1701974;84;21013;-86
2023/01/07 19:01:18;;;;;;;18.90;14.15;;;;;;;3.69;95.48;99631.92;1701557;84;21021;-85
2023/01/07 19:03:56;;;;;;;18.07;14.03;;;;;;;3.73;95.76;99633.58;1702475;84;21540;-86
2023/01/07 19:06:32;;;;;;;18.32;13.30;;;;;;;3.80;95.94;99633.84;1633947;83;21351;-86
2023/01/07 19:09:03;;;;;;;17.82;13.40;;;;;;;3.84;95.72;99629.89;1702070;83;21041;-86
2023/01/07 19:11:38;;;;;;;21.93;15.08;;;;;;;3.89;95.95;99633.23;1698298;84;21032;-86
2023/01/07 19:16:55;;;;;;;20.57;15.20;;;;;;;3.90;95.84;99616.88;1673252;84;21058;-86
2023/01/07 19:19:22;;;;;;;21.40;15.32;;;;;;;3.92;95.69;99621.54;1681233;84;21019;-86
2023/01/07 19:21:52;;;;;;;19.77;14.00;;;;;;;3.93;95.80;99619.39;1707172;84;21070;-86
2023/01/07 19:24:25;;;;;;;19.77;14.07;;;;;;;3.97;95.80;99618.42;1706755;84;21028;-86
2023/01/07 19:26:57;;;;;;;21.50;14.40;;;;;;;3.98;95.87;99624.02;1706190;84;21655;-84
2023/01/07 19:29:29;;;;;;;24.05;15.08;;;;;;;4.03;96.06;99613.11;1705169;84;21835;-87
2023/01/07 19:32:05;;;;;;;21.85;14.73;;;;;;;4.08;95.99;99616.89;1703672;84;21407;-88
2023/01/07 19:34:42;;;;;;;24.90;16.90;;;;;;;4.12;96.06;99615.52;1706231;84;20959;-87
2023/01/07 19:40:04;;;;;;;23.75;14.63;;;;;;;4.19;96.14;99609.30;1567443;90;21590;-86
2023/01/07 19:42:42;;;;;;;23.47;15.35;;;;;;;4.29;96.42;99612.54;1566654;91;21035;-85
2023/01/07 19:45:11;;;;;;;22.37;14.95;;;;;;;4.37;96.36;99611.05;1561869;90;21645;-84
2023/01/07 19:47:43;;;;;;;22.65;15.18;;;;;;;4.37;96.17;99604.58;1582845;90;21057;-84
2023/01/07 19:50:15;;;;;;;21.87;14.90;;;;;;;4.39;96.25;99595.06;1582948;90;21074;-87
2023/01/07 19:52:45;;;;;;;21.10;14.70;;;;;;;4.42;96.25;99594.98;1582911;90;21025;-86
2023/01/07 19:55:21;;;;;;;21.30;14.33;;;;;;;4.44;96.33;99599.23;1582494;90;20987;-86